Time;durP1;ratioP1;P1;durP2;ratioP2;P2;SDS_P1;SDS_P2;PMS_P1;PMS_P2;Temp;Humidity;BMP_temperature;BMP_pressure;BME280_temperature;BME280_humidity;BME280_pressure;Samples;Min_cycle;Max_cycle;Signal;HPM_P1;HPM_P2
2023/10/23 00:00:29;;;;;;;1999.90;999.90;;;;;;;17.42;72.26;101138.53;10539101;28;20511;-70
2023/10/23 00:05:31;;;;;;;1999.90;999.90;;;;;;;17.30;73.88;101141.31;10523298;28;20512;-70
2023/10/23 00:10:34;;;;;;;1999.90;999.90;;;;;;;17.22;72.66;101145.44;10529649;28;20109;-70
2023/10/23 00:15:36;;;;;;;1999.90;999.90;;;;;;;16.84;74.54;101143.13;10547372;28;20058;-70
2023/10/23 00:20:39;;;;;;;1999.90;999.90;;;;;;;16.87;73.81;101150.88;10547757;28;20079;-70
2023/10/23 00:25:41;;;;;;;1999.90;999.90;;;;;;;16.52;75.27;101142.06;10529720;28;20050;-70
2023/10/23 00:30:44;;;;;;;1999.90;999.90;;;;;;;16.51;75.75;101143.00;10546776;28;20485;-70
2023/10/23 00:35:47;;;;;;;1999.90;999.90;;;;;;;16.67;75.03;101155.03;10546898;28;20052;-70
2023/10/23 00:40:49;;;;;;;1999.90;999.90;;;;;;;16.42;74.70;101161.38;10546937;28;20083;-69
2023/10/23 00:45:55;;;;;;;1999.90;999.90;;;;;;;16.28;74.97;101149.22;10528820;28;20048;-70
2023/10/23 00:51:00;;;;;;;1999.90;999.90;;;;;;;16.57;74.16;101152.25;10528747;28;20118;-70
2023/10/23 00:56:07;;;;;;;1999.90;999.90;;;;;;;16.57;71.89;101148.78;10527932;28;20052;-70
2023/10/23 01:01:11;;;;;;;1999.90;999.90;;;;;;;16.46;72.03;101149.63;10546159;28;20054;-69
2023/10/23 01:06:14;;;;;;;1999.90;999.90;;;;;;;16.38;71.90;101166.03;10545428;28;20048;-69
2023/10/23 01:11:17;;;;;;;1999.90;999.90;;;;;;;15.93;73.40;101158.81;10527297;28;20066;-70
2023/10/23 01:16:19;;;;;;;1999.90;999.90;;;;;;;16.19;72.23;101153.41;10527571;28;20056;-70
2023/10/23 01:21:22;;;;;;;1999.90;999.90;;;;;;;16.29;72.62;101156.16;10545348;28;20044;-69
2023/10/23 01:26:24;;;;;;;1999.90;999.90;;;;;;;16.24;71.13;101161.81;10527208;28;20071;-70
2023/10/23 01:31:26;;;;;;;1999.90;999.90;;;;;;;16.16;72.12;101167.66;10545059;28;20060;-69
2023/10/23 01:36:29;;;;;;;1999.90;999.90;;;;;;;15.97;71.93;101178.78;10526029;28;20528;-70
2023/10/23 01:41:31;;;;;;;1999.90;999.90;;;;;;;15.98;73.12;101185.72;10544523;28;20078;-69
2023/10/23 01:46:34;;;;;;;1999.90;999.90;;;;;;;15.65;75.35;101188.16;10543740;28;20052;-69
2023/10/23 01:51:36;;;;;;;1999.90;999.90;;;;;;;15.69;75.48;101185.19;10544254;28;20119;-69
2023/10/23 01:56:39;;;;;;;1999.90;999.90;;;;;;;15.78;75.96;101179.28;10526077;28;20244;-69
2023/10/23 02:01:41;;;;;;;1999.90;999.90;;;;;;;16.11;74.33;101185.66;10543785;28;20047;-69
2023/10/23 02:06:43;;;;;;;1999.90;999.90;;;;;;;16.20;73.07;101183.28;10543529;28;20055;-69
2023/10/23 02:11:46;;;;;;;1999.90;999.90;;;;;;;16.06;72.22;101187.81;10543409;28;20060;-69
2023/10/23 02:16:48;;;;;;;1999.90;999.90;;;;;;;16.14;71.92;101188.06;10543138;28;20044;-69
2023/10/23 02:21:51;;;;;;;1999.90;999.90;;;;;;;16.08;71.63;101192.97;10543059;28;20052;-69
2023/10/23 02:26:54;;;;;;;1999.90;999.90;;;;;;;15.22;74.34;101185.03;10508213;28;20109;-69
2023/10/23 02:31:56;;;;;;;1999.90;999.90;;;;;;;15.29;75.14;101189.88;10542214;28;20055;-69
2023/10/23 02:36:59;;;;;;;1999.90;999.90;;;;;;;15.41;72.36;101189.81;10523658;28;20052;-69
2023/10/23 02:42:01;;;;;;;1999.90;999.90;;;;;;;15.22;73.48;101200.84;10542246;28;20044;-70
2023/10/23 02:47:04;;;;;;;1999.90;999.90;;;;;;;15.13;73.03;101206.78;10524045;28;20130;-70
2023/10/23 02:52:06;;;;;;;1999.90;999.90;;;;;;;14.94;74.00;101201.09;10541827;28;20044;-70
2023/10/23 02:57:09;;;;;;;1999.90;999.90;;;;;;;15.03;72.87;101214.50;10523317;28;20587;-70
2023/10/23 03:02:13;;;;;;;1999.90;999.90;;;;;;;15.33;74.24;101212.44;10523496;28;20048;-69
2023/10/23 03:07:15;;;;;;;1999.90;999.90;;;;;;;15.61;73.78;101206.03;10540646;28;20403;-70
2023/10/23 03:12:17;;;;;;;1999.90;999.90;;;;;;;16.32;70.12;101209.66;10541101;28;20051;-69
2023/10/23 03:17:20;;;;;;;1999.90;999.90;;;;;;;15.48;73.99;101218.41;10541051;28;20075;-70
2023/10/23 03:22:23;;;;;;;1999.90;999.90;;;;;;;15.99;74.20;101226.19;10540726;28;20055;-69
2023/10/23 03:27:26;;;;;;;1999.90;999.90;;;;;;;15.77;73.15;101219.00;10522204;28;20404;-69
2023/10/23 03:32:29;;;;;;;1999.90;999.90;;;;;;;15.80;73.09;101213.47;10540485;28;20097;-69
2023/10/23 03:37:31;;;;;;;1999.90;999.90;;;;;;;15.81;73.25;101219.63;10539449;28;20554;-70
2023/10/23 03:42:34;;;;;;;1999.90;999.90;;;;;;;16.05;70.59;101224.88;10540209;28;20047;-69
2023/10/23 03:47:36;;;;;;;1999.90;999.90;;;;;;;15.94;71.91;101218.59;10521570;28;20050;-69
2023/10/23 03:52:38;;;;;;;1999.90;999.90;;;;;;;15.84;73.65;101222.03;10539342;28;20048;-69
2023/10/23 03:57:41;;;;;;;1999.90;999.90;;;;;;;15.87;73.03;101213.88;10539294;28;20400;-69
2023/10/23 04:02:43;;;;;;;1999.90;999.90;;;;;;;16.09;73.55;101215.81;10539833;28;20044;-69
2023/10/23 04:07:46;;;;;;;1999.90;999.90;;;;;;;16.46;70.49;101221.81;10539154;28;20451;-69
2023/10/23 04:12:48;;;;;;;1999.90;999.90;;;;;;;16.38;69.93;101229.47;10539601;28;20052;-69
2023/10/23 04:17:50;;;;;;;1999.90;999.90;;;;;;;16.25;69.52;101224.25;10520878;28;20125;-69
2023/10/23 04:22:53;;;;;;;1999.90;999.90;;;;;;;16.07;70.58;101217.69;10520948;28;20075;-69
2023/10/23 04:27:56;;;;;;;1999.90;999.90;;;;;;;15.42;73.12;101217.91;10538678;28;20070;-69
2023/10/23 04:32:58;;;;;;;1999.90;999.90;;;;;;;16.04;71.67;101231.97;10521241;28;20059;-69
2023/10/23 04:38:01;;;;;;;1999.90;999.90;;;;;;;16.06;71.03;101232.69;10503874;28;20429;-69
2023/10/23 04:43:04;;;;;;;1999.90;999.90;;;;;;;15.87;72.13;101235.00;10521133;28;20048;-69
2023/10/23 04:48:06;;;;;;;1999.90;999.90;;;;;;;15.86;71.17;101226.25;10520549;28;20580;-69
2023/10/23 04:53:09;;;;;;;1999.90;999.90;;;;;;;15.66;72.29;101232.09;10525448;28;20052;-70
2023/10/23 04:58:11;;;;;;;1999.90;999.90;;;;;;;15.56;70.79;101237.19;10545674;28;20155;-69
2023/10/23 05:03:14;;;;;;;1999.90;999.90;;;;;;;15.71;69.19;101236.06;10511856;28;20047;-69
2023/10/23 05:08:16;;;;;;;1999.90;999.90;;;;;;;15.19;71.93;101237.16;10528052;28;20040;-70
2023/10/23 05:13:18;;;;;;;1999.90;999.90;;;;;;;15.08;75.02;101240.53;10545832;28;20126;-69
2023/10/23 05:18:21;;;;;;;1999.90;999.90;;;;;;;14.89;74.86;101234.84;10545073;28;20427;-69
2023/10/23 05:23:23;;;;;;;1999.90;999.90;;;;;;;15.33;73.50;101230.91;10527658;28;20460;-69
2023/10/23 05:28:26;;;;;;;1999.90;999.90;;;;;;;14.93;73.83;101231.91;10527262;28;20043;-69
2023/10/23 05:33:28;;;;;;;1999.90;999.90;;;;;;;14.94;74.22;101233.56;10545045;28;20047;-68
2023/10/23 05:38:31;;;;;;;1999.90;999.90;;;;;;;14.64;75.50;101234.72;10543948;28;20485;-69
2023/10/23 05:43:34;;;;;;;1999.90;999.90;;;;;;;14.82;74.49;101232.63;10509557;28;20404;-72
2023/10/23 05:48:36;;;;;;;1999.90;999.90;;;;;;;14.99;74.01;101239.38;10526449;28;20124;-73
2023/10/23 05:53:39;;;;;;;1999.90;999.90;;;;;;;14.92;72.54;101235.47;10509287;28;20416;-73
2023/10/23 05:58:41;;;;;;;1999.90;999.90;;;;;;;15.05;72.15;101232.84;10543349;28;20044;-72
2023/10/23 06:03:44;;;;;;;1999.90;999.90;;;;;;;15.27;70.94;101228.72;10542767;28;20126;-72
2023/10/23 06:08:46;;;;;;;1999.90;999.90;;;;;;;15.14;72.66;101229.53;10543052;28;20076;-73
2023/10/23 06:13:48;;;;;;;1999.90;999.90;;;;;;;14.99;74.14;101247.28;10524859;28;20408;-73
2023/10/23 06:18:51;;;;;;;1999.90;999.90;;;;;;;14.85;72.64;101245.59;10543104;28;20044;-73
2023/10/23 06:23:53;;;;;;;1999.90;999.90;;;;;;;14.90;72.03;101241.81;10525110;28;20051;-73
2023/10/23 06:28:56;;;;;;;1999.90;999.90;;;;;;;14.47;75.93;101250.78;10542199;28;20051;-73
2023/10/23 06:33:58;;;;;;;1999.90;999.90;;;;;;;14.76;74.18;101245.38;10524094;28;20452;-73
2023/10/23 06:39:00;;;;;;;1999.90;999.90;;;;;;;14.70;73.53;101243.16;10523676;28;20052;-73
2023/10/23 06:44:03;;;;;;;1999.90;999.90;;;;;;;14.75;74.10;101246.34;10524270;28;20127;-73
2023/10/23 06:49:05;;;;;;;1999.90;999.90;;;;;;;14.83;74.69;101244.84;10541286;28;20044;-73
2023/10/23 06:54:08;;;;;;;1999.90;999.90;;;;;;;14.87;74.88;101248.13;10541764;28;20123;-73
2023/10/23 06:59:10;;;;;;;1999.90;999.90;;;;;;;14.81;76.20;101245.91;10541661;28;20048;-73
2023/10/23 07:04:12;;;;;;;1999.90;999.90;;;;;;;14.89;75.65;101254.13;10540809;28;20481;-73
2023/10/23 07:09:17;;;;;;;1999.90;999.90;;;;;;;14.90;75.02;101249.72;10541254;28;20047;-73
2023/10/23 07:14:19;;;;;;;1999.90;999.90;;;;;;;14.34;76.57;101255.16;10540883;28;20044;-73
2023/10/23 07:19:21;;;;;;;1999.90;999.90;;;;;;;14.76;75.53;101256.78;10540842;28;20044;-74
2023/10/23 07:24:24;;;;;;;1999.90;999.90;;;;;;;14.42;78.21;101251.06;10540768;28;20123;-73
2023/10/23 07:29:26;;;;;;;1999.90;999.90;;;;;;;14.55;77.88;101253.75;10522880;28;20048;-73
2023/10/23 07:34:29;;;;;;;1999.90;999.90;;;;;;;14.77;76.69;101252.34;10540457;28;20048;-74
2023/10/23 07:39:31;;;;;;;1999.90;999.90;;;;;;;15.20;74.07;101257.31;10471706;28;20045;-73
2023/10/23 07:44:37;;;;;;;1999.90;999.90;;;;;;;15.10;76.07;101251.81;10456945;28;20049;-73
2023/10/23 07:49:39;;;;;;;1999.90;999.90;;;;;;;15.60;73.69;101257.97;10456228;28;20400;-73
2023/10/23 07:54:41;;;;;;;1999.90;999.90;;;;;;;15.10;77.19;101259.75;10472034;28;20083;-73
2023/10/23 07:59:44;;;;;;;1999.90;999.90;;;;;;;15.30;76.51;101258.34;10471331;28;20106;-73
2023/10/23 08:04:47;;;;;;;1999.90;999.90;;;;;;;14.81;78.55;101269.63;10456583;28;20053;-73
2023/10/23 08:09:50;;;;;;;1999.90;999.90;;;;;;;15.61;77.61;101258.81;10455857;28;20386;-73
2023/10/23 08:14:52;;;;;;;1999.90;999.90;;;;;;;15.82;75.72;101252.97;10456340;28;20049;-74
2023/10/23 08:19:55;;;;;;;1999.90;999.90;;;;;;;15.55;75.84;101252.19;10456220;28;20045;-73
2023/10/23 08:24:57;;;;;;;1999.90;999.90;;;;;;;15.48;77.05;101258.81;10456037;28;20052;-73
2023/10/23 08:30:00;;;;;;;1999.90;999.90;;;;;;;15.22;76.59;101258.88;10463651;28;20049;-73
2023/10/23 08:35:02;;;;;;;1999.90;999.90;;;;;;;15.23;77.41;101250.03;10467648;28;20053;-73
2023/10/23 08:40:06;;;;;;;1999.90;999.90;;;;;;;15.58;78.28;101240.56;10528690;28;20431;-73
2023/10/23 08:45:09;;;;;;;1999.90;999.90;;;;;;;14.83;78.83;101238.75;10529118;28;20055;-74
2023/10/23 08:50:11;;;;;;;1999.90;999.90;;;;;;;15.67;78.57;101242.53;10520284;22;20137;-68
2023/10/23 08:55:14;;;;;;;1999.90;999.90;;;;;;;15.33;78.46;101250.22;10356950;28;20056;-69
2023/10/23 09:00:17;;;;;;;1999.90;999.90;;;;;;;15.68;77.83;101244.22;10374037;28;20080;-69
2023/10/23 09:05:19;;;;;;;1999.90;999.90;;;;;;;15.98;76.45;101243.81;10373949;28;20103;-68
2023/10/23 09:10:26;;;;;;;1999.90;999.90;;;;;;;15.98;76.30;101248.25;10373202;28;20448;-68
2023/10/23 09:15:28;;;;;;;1999.90;999.90;;;;;;;16.07;75.89;101250.25;10373630;28;20060;-69
2023/10/23 09:20:31;;;;;;;1999.90;999.90;;;;;;;16.44;76.81;101249.28;10373443;28;20049;-68
2023/10/23 09:25:33;;;;;;;1999.90;999.90;;;;;;;16.27;76.41;101242.63;10355946;28;20056;-68
2023/10/23 09:30:35;;;;;;;1999.90;999.90;;;;;;;17.35;72.97;101242.34;10355791;28;20046;-68
2023/10/23 09:35:38;;;;;;;1999.90;999.90;;;;;;;17.22;74.52;101240.69;10355656;28;20137;-68
2023/10/23 09:40:40;;;;;;;1999.90;999.90;;;;;;;17.15;74.81;101241.31;10372676;28;20050;-69
2023/10/23 09:45:43;;;;;;;1999.90;999.90;;;;;;;17.72;74.00;101240.28;10355313;28;20046;-69
2023/10/23 09:50:49;;;;;;;1999.90;999.90;;;;;;;18.34;73.00;101228.16;10354370;28;20054;-69
2023/10/23 09:55:53;;;;;;;1999.90;999.90;;;;;;;18.99;73.13;101221.88;10355145;28;20050;-69
2023/10/23 10:00:56;;;;;;;1999.90;999.90;;;;;;;19.19;70.27;101223.63;10354166;28;20543;-69
2023/10/23 10:06:11;;;;;;;1999.90;999.90;;;;;;;18.95;71.88;101218.66;10372065;28;20056;-69
2023/10/23 10:11:14;;;;;;;1999.90;999.90;;;;;;;18.70;70.48;101218.06;10354669;28;20046;-69
2023/10/23 10:16:17;;;;;;;1999.90;999.90;;;;;;;19.34;69.21;101207.34;10354274;28;20053;-69
2023/10/23 10:21:23;;;;;;;1999.90;999.90;;;;;;;19.76;68.30;101208.03;10371528;28;20050;-69
2023/10/23 10:26:26;;;;;;;1999.90;999.90;;;;;;;20.06;67.27;101197.44;10370754;28;20050;-63
2023/10/23 10:31:28;;;;;;;1999.90;999.90;;;;;;;19.60;67.78;101194.41;10371240;28;20121;-63
2023/10/23 10:36:32;;;;;;;1999.90;999.90;;;;;;;19.97;67.85;101186.66;10370997;28;20490;-63
2023/10/23 10:41:52;;;;;;;1999.90;999.90;;;;;;;19.93;66.95;101166.63;10370952;28;20138;-63
2023/10/23 10:46:54;;;;;;;1999.90;999.90;;;;;;;19.81;66.72;101159.78;10370820;28;20050;-64
2023/10/23 10:51:57;;;;;;;1999.90;999.90;;;;;;;20.14;65.74;101162.97;10369507;28;20107;-64
2023/10/23 10:57:00;;;;;;;1999.90;999.90;;;;;;;20.34;65.77;101148.69;10369850;28;20422;-63
2023/10/23 11:02:02;;;;;;;1999.90;999.90;;;;;;;20.50;65.83;101142.75;10370268;28;20128;-64
2023/10/23 11:07:07;;;;;;;1999.90;999.90;;;;;;;20.80;65.52;101140.06;10370084;28;20054;-64
2023/10/23 11:12:10;;;;;;;1999.90;999.90;;;;;;;20.73;64.21;101129.16;10370117;28;20209;-64
2023/10/23 11:17:13;;;;;;;1999.90;999.90;;;;;;;21.08;64.66;101130.22;10369874;28;20050;-64
2023/10/23 11:22:18;;;;;;;1999.90;999.90;;;;;;;21.25;64.87;101110.81;10351702;28;20085;-64
2023/10/23 11:27:20;;;;;;;1999.90;999.90;;;;;;;20.74;65.65;101114.84;10352674;28;20057;-64
2023/10/23 11:32:23;;;;;;;1999.90;999.90;;;;;;;21.19;64.16;101094.59;10369375;28;20103;-64
2023/10/23 11:37:25;;;;;;;1999.90;999.90;;;;;;;20.97;64.68;101086.84;10368608;28;20050;-64
2023/10/23 11:42:27;;;;;;;1999.90;999.90;;;;;;;21.04;62.51;101084.44;10368380;28;20069;-63
2023/10/23 11:47:30;;;;;;;1999.90;999.90;;;;;;;20.19;66.23;101078.31;10368984;28;20054;-64
2023/10/23 11:52:33;;;;;;;1999.90;999.90;;;;;;;21.11;64.10;101076.69;10350912;28;20050;-64
2023/10/23 11:57:40;;;;;;;1999.90;999.90;;;;;;;21.68;62.51;101055.09;10368704;28;20050;-64
2023/10/23 12:02:43;;;;;;;1999.90;999.90;;;;;;;21.57;63.83;101050.88;10354449;28;20045;-64
2023/10/23 12:07:52;;;;;;;1999.90;999.90;;;;;;;21.69;62.86;101036.31;10375848;28;20077;-63
2023/10/23 12:12:55;;;;;;;1999.90;999.90;;;;;;;20.28;64.76;101045.56;10375712;28;20074;-63
2023/10/23 12:18:03;;;;;;;1999.90;999.90;;;;;;;20.45;63.98;101036.00;10375527;28;20054;-63
2023/10/23 12:23:06;;;;;;;1999.90;999.90;;;;;;;20.09;65.91;101037.66;10374934;28;20129;-63
2023/10/23 12:28:08;;;;;;;1999.90;999.90;;;;;;;21.12;62.73;101017.16;10357961;28;20050;-63
2023/10/23 12:33:10;;;;;;;1999.90;999.90;;;;;;;21.19;63.69;101015.53;10374422;28;20422;-63
2023/10/23 12:38:25;;;;;;;1999.90;999.90;;;;;;;21.20;62.94;101011.03;10374239;28;20486;-63
2023/10/23 12:43:27;;;;;;;1999.90;999.90;;;;;;;20.66;64.49;101011.84;10374120;28;20058;-63
2023/10/23 12:48:30;;;;;;;1999.90;999.90;;;;;;;21.06;63.33;101004.44;10374499;28;20050;-64
2023/10/23 12:53:33;;;;;;;1999.90;999.90;;;;;;;20.70;63.65;100993.75;10356407;28;20054;-64
2023/10/23 12:58:36;;;;;;;1999.90;999.90;;;;;;;20.75;65.27;100988.81;10357107;28;20054;-63
2023/10/23 13:03:38;;;;;;;1999.90;999.90;;;;;;;21.29;63.13;100980.84;10340030;28;20566;-65
2023/10/23 13:08:41;;;;;;;1999.90;999.90;;;;;;;20.96;64.86;100972.56;10373256;28;20077;-64
2023/10/23 13:13:43;;;;;;;1999.90;999.90;;;;;;;20.92;64.81;100964.06;10372573;28;20405;-64
2023/10/23 13:18:45;;;;;;;1999.90;999.90;;;;;;;20.78;65.05;100957.44;10373506;28;20133;-65
2023/10/23 13:23:55;;;;;;;1999.90;999.90;;;;;;;20.46;65.69;100951.72;10373474;28;20053;-64
2023/10/23 13:28:58;;;;;;;1999.90;999.90;;;;;;;20.64;65.14;100941.16;10355940;28;20045;-64
2023/10/23 13:34:00;;;;;;;1999.90;999.90;;;;;;;20.45;65.04;100934.09;10372603;28;20081;-64
2023/10/23 13:39:06;;;;;;;1999.90;999.90;;;;;;;20.28;66.08;100933.91;10372838;28;20050;-64
2023/10/23 13:44:08;;;;;;;1999.90;999.90;;;;;;;20.55;65.53;100917.09;10372838;28;20444;-64
2023/10/23 13:49:11;;;;;;;1999.90;999.90;;;;;;;20.20;66.32;100925.84;10372035;28;20058;-64
2023/10/23 13:54:13;;;;;;;1999.90;999.90;;;;;;;19.66;68.65;100921.13;10371728;28;20203;-64
2023/10/23 13:59:16;;;;;;;1999.90;999.90;;;;;;;19.88;67.64;100915.63;10371647;28;20050;-64
2023/10/23 14:04:18;;;;;;;1999.90;999.90;;;;;;;19.64;68.44;100914.28;10372049;28;20128;-64
2023/10/23 14:09:20;;;;;;;1999.90;999.90;;;;;;;20.30;66.61;100892.06;10371341;28;20555;-64
2023/10/23 14:14:43;;;;;;;1999.90;999.90;;;;;;;20.30;65.81;100885.91;10371223;28;20072;-64
2023/10/23 14:19:46;;;;;;;1999.90;999.90;;;;;;;19.96;66.43;100887.34;10371668;28;20129;-64
2023/10/23 14:24:50;;;;;;;1999.90;999.90;;;;;;;19.98;67.18;100876.56;10369914;28;20425;-64
2023/10/23 14:29:52;;;;;;;1999.90;999.90;;;;;;;20.37;66.32;100858.56;10354066;28;20046;-65
2023/10/23 14:34:55;;;;;;;1999.90;999.90;;;;;;;20.86;65.10;100855.53;10337890;28;20078;-64
2023/10/23 14:39:57;;;;;;;1999.90;999.90;;;;;;;21.20;63.37;100856.63;10353109;28;20049;-64
2023/10/23 14:45:03;;;;;;;1999.90;999.90;;;;;;;21.06;63.78;100845.56;10370152;28;20073;-64
2023/10/23 14:50:07;;;;;;;1999.90;999.90;;;;;;;20.65;64.45;100823.13;10369931;28;20512;-64
2023/10/23 14:55:09;;;;;;;1999.90;999.90;;;;;;;20.41;65.96;100814.75;10370669;28;20061;-64
2023/10/23 15:00:12;;;;;;;1999.90;999.90;;;;;;;20.08;65.73;100807.44;10370280;28;20078;-64
2023/10/23 15:05:14;;;;;;;1999.90;999.90;;;;;;;20.25;65.31;100803.13;10370186;28;20046;-64
2023/10/23 15:10:18;;;;;;;1999.90;999.90;;;;;;;20.27;65.76;100793.16;10369678;28;20154;-64
2023/10/23 15:15:22;;;;;;;1999.90;999.90;;;;;;;20.28;64.67;100781.56;10369857;28;20490;-64
2023/10/23 15:20:29;;;;;;;1999.90;999.90;;;;;;;20.27;65.49;100771.91;10369145;28;20487;-64
2023/10/23 15:25:32;;;;;;;1999.90;999.90;;;;;;;20.09;65.95;100759.44;10369033;28;20156;-65
2023/10/23 15:30:34;;;;;;;1999.90;999.90;;;;;;;20.15;65.80;100753.50;10368842;28;20514;-64
2023/10/23 15:35:36;;;;;;;1999.90;999.90;;;;;;;19.93;65.56;100751.31;10369152;28;20084;-64
2023/10/23 15:40:39;;;;;;;1999.90;999.90;;;;;;;19.57;68.59;100741.41;10369180;28;20051;-64
2023/10/23 15:45:41;;;;;;;1999.90;999.90;;;;;;;19.59;68.77;100728.00;10351150;28;20085;-64
2023/10/23 15:50:44;;;;;;;1999.90;999.90;;;;;;;19.61;68.49;100729.50;10368093;28;20486;-64
2023/10/23 15:55:49;;;;;;;1999.90;999.90;;;;;;;19.19;71.18;100711.41;10368824;28;20056;-64
2023/10/23 16:00:53;;;;;;;1999.90;999.90;;;;;;;19.49;69.80;100715.59;10351252;28;20050;-64
2023/10/23 16:06:02;;;;;;;1999.90;999.90;;;;;;;19.78;67.22;100719.94;10368461;28;20061;-65
2023/10/23 16:11:05;;;;;;;1999.90;999.90;;;;;;;19.72;66.99;100728.47;10368324;28;20049;-64
2023/10/23 16:16:08;;;;;;;1999.90;999.90;;;;;;;19.71;67.21;100725.97;10367580;28;20080;-64
2023/10/23 16:21:19;;;;;;;1999.90;999.90;;;;;;;19.54;68.38;100730.25;10367601;28;20050;-64
2023/10/23 16:26:21;;;;;;;1999.90;999.90;;;;;;;19.33;67.83;100730.50;10367421;28;20418;-64
2023/10/23 16:31:24;;;;;;;1999.90;999.90;;;;;;;19.23;67.96;100720.78;10350624;28;20052;-64
2023/10/23 16:36:27;;;;;;;1999.90;999.90;;;;;;;19.47;66.94;100728.19;10367758;28;20073;-64
2023/10/23 16:41:29;;;;;;;1999.90;999.90;;;;;;;19.23;68.86;100720.78;10367585;28;20050;-64
2023/10/23 16:46:35;;;;;;;1999.90;999.90;;;;;;;18.92;70.26;100717.53;10367909;28;20056;-64
2023/10/23 16:51:37;;;;;;;1999.90;999.90;;;;;;;19.33;68.42;100711.91;10374062;28;20049;-64
2023/10/23 16:56:40;;;;;;;1999.90;999.90;;;;;;;19.24;68.69;100708.31;10374345;28;20129;-64
2023/10/23 17:01:42;;;;;;;1999.90;999.90;;;;;;;19.09;68.69;100694.69;10356707;28;20076;-64
2023/10/23 17:06:44;;;;;;;1999.90;999.90;;;;;;;19.43;66.98;100688.81;10373957;28;20054;-64
2023/10/23 17:11:47;;;;;;;1999.90;999.90;;;;;;;18.95;69.90;100682.75;10373168;28;20421;-64
2023/10/23 17:16:49;;;;;;;1999.90;999.90;;;;;;;18.94;69.36;100667.81;10355672;28;20508;-64
2023/10/23 17:21:52;;;;;;;1999.90;999.90;;;;;;;18.37;72.34;100668.66;10373339;28;20050;-64
2023/10/23 17:26:54;;;;;;;1999.90;999.90;;;;;;;18.95;69.88;100640.31;10356128;28;20133;-63
2023/10/23 17:31:57;;;;;;;1999.90;999.90;;;;;;;18.68;71.28;100646.38;10372566;28;20545;-63
2023/10/23 17:37:00;;;;;;;1999.90;999.90;;;;;;;18.84;72.59;100638.66;10355709;28;20099;-63
2023/10/23 17:42:03;;;;;;;1999.90;999.90;;;;;;;18.85;72.36;100629.72;10372162;28;20056;-63
2023/10/23 17:47:05;;;;;;;1999.90;999.90;;;;;;;18.58;73.56;100627.84;10372575;28;20134;-63
2023/10/23 17:52:09;;;;;;;1999.90;999.90;;;;;;;18.72;73.85;100615.94;10371713;28;20050;-63
2023/10/23 17:57:12;;;;;;;1999.90;999.90;;;;;;;18.61;74.35;100600.19;10354558;28;20506;-63
2023/10/23 18:02:15;;;;;;;1999.90;999.90;;;;;;;18.64;73.36;100590.13;10355069;28;20080;-63
2023/10/23 18:07:17;;;;;;;1999.90;999.90;;;;;;;18.24;73.65;100583.31;10371615;28;20099;-63
2023/10/23 18:12:20;;;;;;;1999.90;999.90;;;;;;;18.30;76.18;100588.00;10372030;28;20080;-63
2023/10/23 18:17:40;;;;;;;1999.90;999.90;;;;;;;18.30;75.41;100598.59;10371921;28;20061;-63
2023/10/23 18:22:42;;;;;;;1999.90;999.90;;;;;;;18.20;77.39;100606.56;10371004;28;20496;-63
2023/10/23 18:27:45;;;;;;;1999.90;999.90;;;;;;;18.30;76.42;100603.91;10371488;28;20054;-63
2023/10/23 18:32:47;;;;;;;1999.90;999.90;;;;;;;18.48;75.92;100593.41;10353808;28;20042;-63
2023/10/23 18:37:50;;;;;;;1999.90;999.90;;;;;;;18.18;77.83;100594.47;10371012;28;20050;-63
2023/10/23 18:43:03;;;;;;;1999.90;999.90;;;;;;;18.40;76.50;100580.03;10353750;28;20054;-63
2023/10/23 18:48:06;;;;;;;1999.90;999.90;;;;;;;17.85;79.18;100579.84;10370876;28;20064;-63
2023/10/23 18:53:09;;;;;;;1999.90;999.90;;;;;;;17.53;81.00;100588.88;10321140;28;20065;-63
2023/10/23 18:58:11;;;;;;;1999.90;999.90;;;;;;;18.28;77.89;100578.56;10369878;28;20049;-63
2023/10/23 19:03:13;;;;;;;1999.90;999.90;;;;;;;17.60;78.69;100574.13;10336386;28;20048;-63
2023/10/23 19:08:16;;;;;;;1999.90;999.90;;;;;;;17.70;82.88;100580.28;10370178;28;20083;-63
2023/10/23 19:13:19;;;;;;;1999.90;999.90;;;;;;;17.90;80.57;100565.22;10352179;28;20095;-63
2023/10/23 19:18:22;;;;;;;1999.90;999.90;;;;;;;17.89;79.71;100570.69;10369680;28;20132;-62
2023/10/23 19:23:25;;;;;;;1999.90;999.90;;;;;;;18.22;78.67;100547.31;10369860;28;20091;-62
2023/10/23 19:28:28;;;;;;;1999.90;999.90;;;;;;;18.34;78.22;100547.00;10368924;28;20057;-62
2023/10/23 19:33:32;;;;;;;1999.90;999.90;;;;;;;18.09;79.12;100527.28;10369448;28;20070;-63
2023/10/23 19:38:34;;;;;;;1999.90;999.90;;;;;;;18.27;76.33;100529.16;10368482;28;20403;-63
2023/10/23 19:43:48;;;;;;;1999.90;999.90;;;;;;;18.38;76.51;100521.88;10368305;28;20517;-63
2023/10/23 19:48:50;;;;;;;1999.90;999.90;;;;;;;17.79;78.87;100512.41;10368355;28;20457;-63
2023/10/23 19:53:53;;;;;;;1999.90;999.90;;;;;;;17.93;79.39;100503.19;10368156;28;20129;-63
2023/10/23 19:58:57;;;;;;;1999.90;999.90;;;;;;;17.89;77.75;100496.53;10367978;28;20486;-63
2023/10/23 20:03:59;;;;;;;1999.90;999.90;;;;;;;17.33;79.55;100490.97;10367864;28;20054;-62
2023/10/23 20:09:03;;;;;;;1999.90;999.90;;;;;;;17.91;79.32;100498.03;10368446;28;20054;-63
2023/10/23 20:14:09;;;;;;;1999.90;999.90;;;;;;;17.35;81.86;100504.91;10367703;28;20053;-63
2023/10/23 20:19:13;;;;;;;1999.90;999.90;;;;;;;17.80;80.52;100483.13;10350870;28;20134;-62
2023/10/23 20:24:16;;;;;;;1999.90;999.90;;;;;;;16.85;82.87;100476.72;10355186;28;20042;-63
2023/10/23 20:29:18;;;;;;;1999.90;999.90;;;;;;;17.31;80.43;100449.75;10326091;28;20060;-63
2023/10/23 20:34:20;;;;;;;1999.90;999.90;;;;;;;17.87;79.05;100434.91;10374427;28;20042;-63
2023/10/23 20:39:23;;;;;;;1999.90;999.90;;;;;;;18.00;78.33;100425.69;10374262;28;20049;-62
2023/10/23 20:44:25;;;;;;;1999.90;999.90;;;;;;;17.55;80.21;100420.19;10373930;28;20065;-62
2023/10/23 20:49:28;;;;;;;1999.90;999.90;;;;;;;17.24;81.65;100415.91;10374275;28;20128;-62
2023/10/23 20:54:30;;;;;;;1999.90;999.90;;;;;;;16.90;86.42;100408.41;10373794;28;20417;-63
2023/10/23 20:59:32;;;;;;;1999.90;999.90;;;;;;;17.44;82.29;100384.13;10374235;28;20064;-63
2023/10/23 21:04:35;;;;;;;1999.90;999.90;;;;;;;17.64;79.98;100374.34;10392916;23;20053;-61
2023/10/23 21:09:38;;;;;;;1999.90;999.90;;;;;;;17.30;82.47;100369.56;10545853;28;20488;-61
2023/10/23 21:14:48;;;;;;;1999.90;999.90;;;;;;;17.02;84.68;100358.03;10545392;28;20071;-61
2023/10/23 21:19:50;;;;;;;1999.90;999.90;;;;;;;17.02;84.04;100345.63;10545078;28;20510;-61
2023/10/23 21:24:53;;;;;;;1999.90;999.90;;;;;;;16.95;84.50;100335.78;10544983;28;20056;-61
2023/10/23 21:29:55;;;;;;;1999.90;999.90;;;;;;;17.29;84.69;100324.72;10545311;28;20047;-61
2023/10/23 21:34:57;;;;;;;1999.90;999.90;;;;;;;17.77;81.61;100308.66;10544153;28;20055;-61
2023/10/23 21:40:00;;;;;;;1999.90;999.90;;;;;;;17.19;84.81;100307.03;10544930;28;20048;-61
2023/10/23 21:45:03;;;;;;;1999.90;999.90;;;;;;;17.18;87.67;100310.69;10544821;28;20044;-61
2023/10/23 21:50:06;;;;;;;1999.90;999.90;;;;;;;17.07;85.65;100292.31;10544645;28;20052;-61
2023/10/23 21:55:10;;;;;;;1999.90;999.90;;;;;;;17.17;84.64;100277.25;10544385;28;20082;-62